Aeroporto :
LOGIN :

Iscrizione | Disclaimer

   EN    FR    IT 

 










Sommario :    VFR   VFR Marginale   IFR   IFR Intensivo   IFR Molto Intensivo
Visibilità : 
Base nubi : 
>= 8 km
>= 3000ft
5 / 8 km
1000 / 3000 ft
1500m / 5 km
500 / 1000 ft
800 / 1500m
200 / 500 ft
< 800m
< 200 ft
Simboli :   Temporali  Nebbia  Neve Forte  Precipitazioni Forti  Vento > 20 kt
SIGMETs :   Varie  Temporali  Ghiacco  Turbolenza  Onda orograficha  Ceneri Vulcaniche







- Altitudine del aeroporto : 313 ft
- Codice IATA : LEH
- Carte del aeroporto


LFOH - Le Havre Octeville

ULTIMO METAR :
  • 250930Z AUTO 02016KT 9999 FEW029 09/02 Q1031 NOSIG

METARs OBSOLETI :
  • 250900Z AUTO 01015KT 9999 SCT030 08/02 Q1031 NOSIG
  • 250830Z AUTO 36017KT 9999 BKN030 08/03 Q1031 NOSIG
  • 250800Z AUTO 36016KT 9999 BKN031 08/02 Q1030 NOSIG
  • 250730Z AUTO 36016KT 9999 FEW029 08/02 Q1030 NOSIG

TAF TAF LFOH
Valido dal 25 a 06 ore il 26 a 06 ore UTC


250500Z 2506/2606 36015KT CAVOK
BECMG 2517/2519 01005KT
PROB30 2603/2606 1500 BR
ATIS : +33 2 35 54 64 93
Nessun NOTAM noto per questo aeroporto.



MetMap, La meteo Aeronautica in un colpo d'occhio ! - Copyright ORBIFLY Dicembre 2007 - Disclaimer

ORBIFLY MET'MAP TEAM :

Programmazione e sviluppo : Alexandra Zaïnal
Concezione e sviluppo : Baudouin d'Aumeries
Co-Programmazione e sviluppo : Marc-Olivier Méhu
Supporto tecnico e logistico : Manuel Goepfert
Aiuto per la traduzione : Arnaldo La Scala

Contatto : metmap@orbifly.com




FONTI E CREDITI :

   NOAA